sensor_id;sensor_type;location;lat;lon;timestamp;temperature;humidity
18361;SHT31;9308;48.550;9.108;2022-12-18T00:01:29;-8.95;73.27
18361;SHT31;9308;48.550;9.108;2022-12-18T00:03:56;-9.22;73.71
18361;SHT31;9308;48.550;9.108;2022-12-18T00:06:24;-9.07;74.24
18361;SHT31;9308;48.550;9.108;2022-12-18T00:08:49;-9.24;74.42
18361;SHT31;9308;48.550;9.108;2022-12-18T00:11:24;-9.11;73.88
18361;SHT31;9308;48.550;9.108;2022-12-18T00:13:50;-9.40;74.15
18361;SHT31;9308;48.550;9.108;2022-12-18T00:16:19;-9.28;74.13
18361;SHT31;9308;48.550;9.108;2022-12-18T00:18:49;-9.09;74.02
18361;SHT31;9308;48.550;9.108;2022-12-18T00:21:15;-9.24;73.63
18361;SHT31;9308;48.550;9.108;2022-12-18T00:23:43;-9.11;73.24
18361;SHT31;9308;48.550;9.108;2022-12-18T00:26:14;-9.30;73.32
18361;SHT31;9308;48.550;9.108;2022-12-18T00:28:41;-9.06;73.01
18361;SHT31;9308;48.550;9.108;2022-12-18T00:31:09;-8.93;72.52
18361;SHT31;9308;48.550;9.108;2022-12-18T00:33:36;-9.09;72.66
18361;SHT31;9308;48.550;9.108;2022-12-18T00:36:03;-9.27;73.44
18361;SHT31;9308;48.550;9.108;2022-12-18T00:38:28;-9.34;73.36
18361;SHT31;9308;48.550;9.108;2022-12-18T00:40:54;-9.13;73.47
18361;SHT31;9308;48.550;9.108;2022-12-18T00:43:19;-9.37;73.73
18361;SHT31;9308;48.550;9.108;2022-12-18T00:45:45;-9.19;73.36
18361;SHT31;9308;48.550;9.108;2022-12-18T00:48:10;-9.19;72.29
18361;SHT31;9308;48.550;9.108;2022-12-18T00:50:36;-9.30;72.01
18361;SHT31;9308;48.550;9.108;2022-12-18T00:53:01;-9.55;71.59
18361;SHT31;9308;48.550;9.108;2022-12-18T00:55:27;-9.74;72.17
18361;SHT31;9308;48.550;9.108;2022-12-18T00:57:52;-9.22;71.82
18361;SHT31;9308;48.550;9.108;2022-12-18T01:00:18;-9.48;71.28
18361;SHT31;9308;48.550;9.108;2022-12-18T01:02:43;-9.78;71.37
18361;SHT31;9308;48.550;9.108;2022-12-18T01:05:11;-9.57;71.76
18361;SHT31;9308;48.550;9.108;2022-12-18T01:07:37;-9.59;72.25
18361;SHT31;9308;48.550;9.108;2022-12-18T01:10:04;-9.55;72.05
18361;SHT31;9308;48.550;9.108;2022-12-18T01:12:30;-9.50;72.06
18361;SHT31;9308;48.550;9.108;2022-12-18T01:14:56;-9.81;71.89
18361;SHT31;9308;48.550;9.108;2022-12-18T01:17:21;-9.68;72.27
18361;SHT31;9308;48.550;9.108;2022-12-18T01:19:47;-9.65;71.62
18361;SHT31;9308;48.550;9.108;2022-12-18T01:22:12;-9.93;72.20
18361;SHT31;9308;48.550;9.108;2022-12-18T01:24:38;-9.96;72.33
18361;SHT31;9308;48.550;9.108;2022-12-18T01:27:03;-10.20;71.91
18361;SHT31;9308;48.550;9.108;2022-12-18T01:29:29;-10.00;72.39
18361;SHT31;9308;48.550;9.108;2022-12-18T01:31:55;-10.20;72.74
18361;SHT31;9308;48.550;9.108;2022-12-18T01:34:22;-10.10;72.49
18361;SHT31;9308;48.550;9.108;2022-12-18T01:36:47;-10.06;72.27
18361;SHT31;9308;48.550;9.108;2022-12-18T01:39:14;-10.13;72.26
18361;SHT31;9308;48.550;9.108;2022-12-18T01:41:40;-10.35;72.14
18361;SHT31;9308;48.550;9.108;2022-12-18T01:47:21;-10.03;72.07
18361;SHT31;9308;48.550;9.108;2022-12-18T01:49:47;-10.03;71.97
18361;SHT31;9308;48.550;9.108;2022-12-18T01:52:13;-10.13;71.53
18361;SHT31;9308;48.550;9.108;2022-12-18T01:54:39;-10.12;72.09
18361;SHT31;9308;48.550;9.108;2022-12-18T01:57:05;-9.99;72.08
18361;SHT31;9308;48.550;9.108;2022-12-18T01:59:32;-10.21;72.36
18361;SHT31;9308;48.550;9.108;2022-12-18T02:01:59;-10.17;72.03
18361;SHT31;9308;48.550;9.108;2022-12-18T02:04:27;-9.86;71.53
18361;SHT31;9308;48.550;9.108;2022-12-18T02:07:14;-9.78;71.39
18361;SHT31;9308;48.550;9.108;2022-12-18T02:10:02;-9.74;71.28
18361;SHT31;9308;48.550;9.108;2022-12-18T02:15:36;-9.71;70.44
18361;SHT31;9308;48.550;9.108;2022-12-18T02:20:49;-9.51;70.40
18361;SHT31;9308;48.550;9.108;2022-12-18T02:23:57;-9.61;70.64
18361;SHT31;9308;48.550;9.108;2022-12-18T02:26:28;-9.58;70.38
18361;SHT31;9308;48.550;9.108;2022-12-18T02:29:00;-9.90;70.41
18361;SHT31;9308;48.550;9.108;2022-12-18T02:31:28;-9.89;70.65
18361;SHT31;9308;48.550;9.108;2022-12-18T02:33:56;-9.65;70.99
18361;SHT31;9308;48.550;9.108;2022-12-18T02:36:24;-9.62;70.79
18361;SHT31;9308;48.550;9.108;2022-12-18T02:38:52;-9.52;70.66
18361;SHT31;9308;48.550;9.108;2022-12-18T02:41:19;-9.54;70.36
18361;SHT31;9308;48.550;9.108;2022-12-18T02:44:08;-9.78;70.72
18361;SHT31;9308;48.550;9.108;2022-12-18T02:46:49;-9.78;70.42
18361;SHT31;9308;48.550;9.108;2022-12-18T02:52:02;-9.50;70.92
18361;SHT31;9308;48.550;9.108;2022-12-18T02:58:04;-9.52;70.94
18361;SHT31;9308;48.550;9.108;2022-12-18T03:00:22;-9.33;70.96
18361;SHT31;9308;48.550;9.108;2022-12-18T03:03:02;-9.19;70.61
18361;SHT31;9308;48.550;9.108;2022-12-18T03:08:08;-9.11;71.18
18361;SHT31;9308;48.550;9.108;2022-12-18T03:11:01;-8.88;70.02
18361;SHT31;9308;48.550;9.108;2022-12-18T03:13:34;-8.99;70.64
18361;SHT31;9308;48.550;9.108;2022-12-18T03:16:02;-9.09;71.01
18361;SHT31;9308;48.550;9.108;2022-12-18T03:21:05;-9.01;71.75
18361;SHT31;9308;48.550;9.108;2022-12-18T03:23:35;-9.04;72.29
18361;SHT31;9308;48.550;9.108;2022-12-18T03:26:07;-8.90;72.42
18361;SHT31;9308;48.550;9.108;2022-12-18T03:28:38;-8.89;73.35
18361;SHT31;9308;48.550;9.108;2022-12-18T03:31:04;-8.75;73.08
18361;SHT31;9308;48.550;9.108;2022-12-18T03:33:55;-8.76;73.42
18361;SHT31;9308;48.550;9.108;2022-12-18T03:36:23;-8.67;73.59
18361;SHT31;9308;48.550;9.108;2022-12-18T03:38:49;-8.62;73.53
18361;SHT31;9308;48.550;9.108;2022-12-18T03:41:19;-8.38;73.03
18361;SHT31;9308;48.550;9.108;2022-12-18T03:43:52;-8.40;72.39
18361;SHT31;9308;48.550;9.108;2022-12-18T03:46:33;-8.34;72.75
18361;SHT31;9308;48.550;9.108;2022-12-18T03:49:11;-8.64;72.66
18361;SHT31;9308;48.550;9.108;2022-12-18T03:51:58;-8.69;72.76
18361;SHT31;9308;48.550;9.108;2022-12-18T03:54:25;-8.50;71.94
18361;SHT31;9308;48.550;9.108;2022-12-18T03:56:59;-8.79;72.20
18361;SHT31;9308;48.550;9.108;2022-12-18T03:59:27;-8.85;71.72
18361;SHT31;9308;48.550;9.108;2022-12-18T04:01:55;-8.69;71.11
18361;SHT31;9308;48.550;9.108;2022-12-18T04:04:28;-8.78;71.31
18361;SHT31;9308;48.550;9.108;2022-12-18T04:06:54;-8.75;71.71
18361;SHT31;9308;48.550;9.108;2022-12-18T04:09:21;-8.75;72.11
18361;SHT31;9308;48.550;9.108;2022-12-18T04:11:47;-8.68;71.82
18361;SHT31;9308;48.550;9.108;2022-12-18T04:14:13;-8.72;71.24
18361;SHT31;9308;48.550;9.108;2022-12-18T04:16:38;-8.78;71.49
18361;SHT31;9308;48.550;9.108;2022-12-18T04:19:04;-8.83;71.50
18361;SHT31;9308;48.550;9.108;2022-12-18T04:21:29;-8.67;71.70
18361;SHT31;9308;48.550;9.108;2022-12-18T04:23:55;-8.68;71.96
18361;SHT31;9308;48.550;9.108;2022-12-18T04:26:20;-8.33;70.47
18361;SHT31;9308;48.550;9.108;2022-12-18T04:28:46;-8.32;68.56
18361;SHT31;9308;48.550;9.108;2022-12-18T04:31:11;-8.75;69.65
18361;SHT31;9308;48.550;9.108;2022-12-18T04:33:37;-8.99;71.11
18361;SHT31;9308;48.550;9.108;2022-12-18T04:36:03;-8.89;70.87
18361;SHT31;9308;48.550;9.108;2022-12-18T04:38:28;-8.96;70.80
18361;SHT31;9308;48.550;9.108;2022-12-18T04:40:54;-8.92;70.88
18361;SHT31;9308;48.550;9.108;2022-12-18T04:43:19;-8.99;70.47
18361;SHT31;9308;48.550;9.108;2022-12-18T04:45:45;-8.88;70.34
18361;SHT31;9308;48.550;9.108;2022-12-18T04:48:12;-8.79;71.02
18361;SHT31;9308;48.550;9.108;2022-12-18T04:50:37;-9.01;71.04
18361;SHT31;9308;48.550;9.108;2022-12-18T04:53:02;-8.93;71.01
18361;SHT31;9308;48.550;9.108;2022-12-18T04:55:28;-8.61;69.65
18361;SHT31;9308;48.550;9.108;2022-12-18T04:57:53;-8.43;68.99
18361;SHT31;9308;48.550;9.108;2022-12-18T05:00:19;-8.79;69.90
18361;SHT31;9308;48.550;9.108;2022-12-18T05:02:45;-8.97;70.40
18361;SHT31;9308;48.550;9.108;2022-12-18T05:05:10;-9.10;70.27
18361;SHT31;9308;48.550;9.108;2022-12-18T05:07:37;-9.16;70.05
18361;SHT31;9308;48.550;9.108;2022-12-18T05:10:04;-9.17;70.03
18361;SHT31;9308;48.550;9.108;2022-12-18T05:12:30;-9.26;69.87
18361;SHT31;9308;48.550;9.108;2022-12-18T05:14:56;-9.43;70.35
18361;SHT31;9308;48.550;9.108;2022-12-18T05:17:21;-9.45;70.24
18361;SHT31;9308;48.550;9.108;2022-12-18T05:19:47;-9.36;70.08
18361;SHT31;9308;48.550;9.108;2022-12-18T05:22:12;-9.37;70.52
18361;SHT31;9308;48.550;9.108;2022-12-18T05:24:38;-9.36;70.91
18361;SHT31;9308;48.550;9.108;2022-12-18T05:27:03;-9.38;70.51
18361;SHT31;9308;48.550;9.108;2022-12-18T05:29:28;-9.57;70.52
18361;SHT31;9308;48.550;9.108;2022-12-18T05:31:54;-9.41;70.50
18361;SHT31;9308;48.550;9.108;2022-12-18T05:34:19;-9.30;69.93
18361;SHT31;9308;48.550;9.108;2022-12-18T05:36:45;-9.37;70.23
18361;SHT31;9308;48.550;9.108;2022-12-18T05:39:10;-9.31;69.73
18361;SHT31;9308;48.550;9.108;2022-12-18T05:41:36;-9.64;69.73
18361;SHT31;9308;48.550;9.108;2022-12-18T05:44:01;-9.43;70.79
18361;SHT31;9308;48.550;9.108;2022-12-18T05:46:27;-9.37;70.57
18361;SHT31;9308;48.550;9.108;2022-12-18T05:48:52;-9.17;70.23
18361;SHT31;9308;48.550;9.108;2022-12-18T05:51:20;-9.30;69.84
18361;SHT31;9308;48.550;9.108;2022-12-18T05:53:46;-9.36;69.65
18361;SHT31;9308;48.550;9.108;2022-12-18T05:56:14;-9.36;70.12
18361;SHT31;9308;48.550;9.108;2022-12-18T05:58:40;-9.38;70.61
18361;SHT31;9308;48.550;9.108;2022-12-18T06:01:17;-9.36;70.48
18361;SHT31;9308;48.550;9.108;2022-12-18T06:03:43;-9.33;70.77
18361;SHT31;9308;48.550;9.108;2022-12-18T06:08:44;-9.24;71.93
18361;SHT31;9308;48.550;9.108;2022-12-18T06:11:10;-9.19;71.78
18361;SHT31;9308;48.550;9.108;2022-12-18T06:13:36;-8.95;71.51
18361;SHT31;9308;48.550;9.108;2022-12-18T06:16:05;-8.82;70.52
18361;SHT31;9308;48.550;9.108;2022-12-18T06:18:31;-9.24;70.72
18361;SHT31;9308;48.550;9.108;2022-12-18T06:20:58;-9.27;71.02
18361;SHT31;9308;48.550;9.108;2022-12-18T06:23:24;-9.15;70.65
18361;SHT31;9308;48.550;9.108;2022-12-18T06:25:49;-9.34;69.81
18361;SHT31;9308;48.550;9.108;2022-12-18T06:28:15;-9.69;69.56
18361;SHT31;9308;48.550;9.108;2022-12-18T06:30:44;-9.44;69.85
18361;SHT31;9308;48.550;9.108;2022-12-18T06:33:09;-9.59;69.87
18361;SHT31;9308;48.550;9.108;2022-12-18T06:35:35;-9.57;70.23
18361;SHT31;9308;48.550;9.108;2022-12-18T06:38:02;-9.58;70.30
18361;SHT31;9308;48.550;9.108;2022-12-18T06:40:28;-9.86;69.85
18361;SHT31;9308;48.550;9.108;2022-12-18T06:42:53;-9.72;70.33
18361;SHT31;9308;48.550;9.108;2022-12-18T06:45:19;-9.62;70.37
18361;SHT31;9308;48.550;9.108;2022-12-18T06:47:44;-9.45;69.97
18361;SHT31;9308;48.550;9.108;2022-12-18T06:50:10;-9.59;70.05
18361;SHT31;9308;48.550;9.108;2022-12-18T06:52:36;-9.17;69.07
18361;SHT31;9308;48.550;9.108;2022-12-18T06:55:02;-9.43;68.81
18361;SHT31;9308;48.550;9.108;2022-12-18T06:57:28;-9.41;69.18
18361;SHT31;9308;48.550;9.108;2022-12-18T06:59:53;-9.43;69.05
18361;SHT31;9308;48.550;9.108;2022-12-18T07:02:19;-9.44;69.84
18361;SHT31;9308;48.550;9.108;2022-12-18T07:04:44;-9.40;69.32
18361;SHT31;9308;48.550;9.108;2022-12-18T07:07:10;-9.27;69.35
18361;SHT31;9308;48.550;9.108;2022-12-18T07:09:35;-9.16;69.07
18361;SHT31;9308;48.550;9.108;2022-12-18T07:12:01;-9.22;68.58
18361;SHT31;9308;48.550;9.108;2022-12-18T07:14:26;-9.36;68.60
18361;SHT31;9308;48.550;9.108;2022-12-18T07:16:51;-9.20;68.55
18361;SHT31;9308;48.550;9.108;2022-12-18T07:19:17;-9.31;68.23
18361;SHT31;9308;48.550;9.108;2022-12-18T07:21:42;-9.37;68.26
18361;SHT31;9308;48.550;9.108;2022-12-18T07:24:08;-9.10;68.08
18361;SHT31;9308;48.550;9.108;2022-12-18T07:26:33;-9.33;68.12
18361;SHT31;9308;48.550;9.108;2022-12-18T07:28:59;-9.30;67.81
18361;SHT31;9308;48.550;9.108;2022-12-18T07:31:25;-9.27;68.08
18361;SHT31;9308;48.550;9.108;2022-12-18T07:33:51;-9.27;66.85
18361;SHT31;9308;48.550;9.108;2022-12-18T07:36:17;-9.04;67.18
18361;SHT31;9308;48.550;9.108;2022-12-18T07:38:46;-9.20;67.40
18361;SHT31;9308;48.550;9.108;2022-12-18T07:41:13;-9.34;67.77
18361;SHT31;9308;48.550;9.108;2022-12-18T07:43:40;-9.44;68.08
18361;SHT31;9308;48.550;9.108;2022-12-18T07:46:05;-9.48;68.05
18361;SHT31;9308;48.550;9.108;2022-12-18T07:48:31;-9.26;68.11
18361;SHT31;9308;48.550;9.108;2022-12-18T07:51:02;-9.20;67.42
18361;SHT31;9308;48.550;9.108;2022-12-18T07:53:28;-9.20;67.47
18361;SHT31;9308;48.550;9.108;2022-12-18T07:56:02;-9.15;67.92
18361;SHT31;9308;48.550;9.108;2022-12-18T07:58:29;-9.20;68.08
18361;SHT31;9308;48.550;9.108;2022-12-18T08:03:30;-8.96;68.64
18361;SHT31;9308;48.550;9.108;2022-12-18T08:06:00;-8.93;68.37
18361;SHT31;9308;48.550;9.108;2022-12-18T08:08:26;-8.88;67.83
18361;SHT31;9308;48.550;9.108;2022-12-18T08:10:52;-8.88;68.27
18361;SHT31;9308;48.550;9.108;2022-12-18T08:13:17;-9.06;68.39
18361;SHT31;9308;48.550;9.108;2022-12-18T08:15:42;-8.75;68.47
18361;SHT31;9308;48.550;9.108;2022-12-18T08:18:08;-8.60;68.60
18361;SHT31;9308;48.550;9.108;2022-12-18T08:20:33;-8.36;67.69
18361;SHT31;9308;48.550;9.108;2022-12-18T08:22:59;-8.43;68.52
18361;SHT31;9308;48.550;9.108;2022-12-18T08:25:24;-8.50;69.08
18361;SHT31;9308;48.550;9.108;2022-12-18T08:27:50;-8.32;68.08
18361;SHT31;9308;48.550;9.108;2022-12-18T08:30:16;-8.32;68.46
18361;SHT31;9308;48.550;9.108;2022-12-18T08:32:41;-8.24;68.55
18361;SHT31;9308;48.550;9.108;2022-12-18T08:35:07;-8.17;69.07
18361;SHT31;9308;48.550;9.108;2022-12-18T08:37:33;-8.19;68.96
18361;SHT31;9308;48.550;9.108;2022-12-18T08:39:59;-8.19;69.38
18361;SHT31;9308;48.550;9.108;2022-12-18T08:42:25;-8.02;69.75
18361;SHT31;9308;48.550;9.108;2022-12-18T08:45:26;-7.99;69.85
18361;SHT31;9308;48.550;9.108;2022-12-18T08:47:51;-7.62;69.34
18361;SHT31;9308;48.550;9.108;2022-12-18T08:50:17;-7.62;69.58
18361;SHT31;9308;48.550;9.108;2022-12-18T08:52:42;-7.58;69.94
18361;SHT31;9308;48.550;9.108;2022-12-18T08:55:09;-7.59;69.71
18361;SHT31;9308;48.550;9.108;2022-12-18T08:57:35;-7.55;69.54
18361;SHT31;9308;48.550;9.108;2022-12-18T09:00:00;-7.41;69.28
18361;SHT31;9308;48.550;9.108;2022-12-18T09:02:26;-7.38;69.31
18361;SHT31;9308;48.550;9.108;2022-12-18T09:04:51;-7.33;69.28
18361;SHT31;9308;48.550;9.108;2022-12-18T09:07:17;-7.19;69.16
18361;SHT31;9308;48.550;9.108;2022-12-18T09:09:42;-7.19;69.30
18361;SHT31;9308;48.550;9.108;2022-12-18T09:12:08;-7.24;69.60
18361;SHT31;9308;48.550;9.108;2022-12-18T09:14:34;-6.93;70.13
18361;SHT31;9308;48.550;9.108;2022-12-18T09:16:59;-6.89;69.28
18361;SHT31;9308;48.550;9.108;2022-12-18T09:19:25;-6.82;69.83
18361;SHT31;9308;48.550;9.108;2022-12-18T09:21:50;-6.65;70.55
18361;SHT31;9308;48.550;9.108;2022-12-18T09:24:16;-6.49;70.11
18361;SHT31;9308;48.550;9.108;2022-12-18T09:26:42;-6.36;69.83
18361;SHT31;9308;48.550;9.108;2022-12-18T09:29:07;-6.29;70.27
18361;SHT31;9308;48.550;9.108;2022-12-18T09:31:34;-6.22;70.17
18361;SHT31;9308;48.550;9.108;2022-12-18T09:33:59;-6.07;70.05
18361;SHT31;9308;48.550;9.108;2022-12-18T09:36:24;-6.15;70.18
18361;SHT31;9308;48.550;9.108;2022-12-18T09:38:50;-5.89;69.99
18361;SHT31;9308;48.550;9.108;2022-12-18T09:43:59;-5.86;71.16
18361;SHT31;9308;48.550;9.108;2022-12-18T09:46:33;-5.85;71.25
18361;SHT31;9308;48.550;9.108;2022-12-18T09:49:02;-5.70;71.80
18361;SHT31;9308;48.550;9.108;2022-12-18T09:51:35;-5.46;71.45
18361;SHT31;9308;48.550;9.108;2022-12-18T09:54:11;-5.35;71.50
18361;SHT31;9308;48.550;9.108;2022-12-18T09:56:41;-5.30;71.51
18361;SHT31;9308;48.550;9.108;2022-12-18T09:59:34;-5.11;72.07
18361;SHT31;9308;48.550;9.108;2022-12-18T10:02:13;-4.88;71.64
18361;SHT31;9308;48.550;9.108;2022-12-18T10:04:39;-4.82;72.05
18361;SHT31;9308;48.550;9.108;2022-12-18T10:07:20;-4.78;71.99
18361;SHT31;9308;48.550;9.108;2022-12-18T10:10:02;-4.70;71.67
18361;SHT31;9308;48.550;9.108;2022-12-18T10:15:30;-4.34;71.70
18361;SHT31;9308;48.550;9.108;2022-12-18T10:18:12;-4.14;72.67
18361;SHT31;9308;48.550;9.108;2022-12-18T10:20:49;-4.04;72.62
18361;SHT31;9308;48.550;9.108;2022-12-18T10:23:21;-4.09;72.94
18361;SHT31;9308;48.550;9.108;2022-12-18T10:26:00;-4.05;73.50
18361;SHT31;9308;48.550;9.108;2022-12-18T10:28:29;-3.80;73.07
18361;SHT31;9308;48.550;9.108;2022-12-18T10:30:55;-3.60;72.56
18361;SHT31;9308;48.550;9.108;2022-12-18T10:33:28;-3.51;72.65
18361;SHT31;9308;48.550;9.108;2022-12-18T10:35:54;-3.46;72.16
18361;SHT31;9308;48.550;9.108;2022-12-18T10:38:28;-3.23;72.10
18361;SHT31;9308;48.550;9.108;2022-12-18T10:43:26;-2.88;71.67
18361;SHT31;9308;48.550;9.108;2022-12-18T10:48:50;-2.56;70.74
18361;SHT31;9308;48.550;9.108;2022-12-18T10:51:25;-2.49;71.27
18361;SHT31;9308;48.550;9.108;2022-12-18T10:53:59;-2.71;71.13
18361;SHT31;9308;48.550;9.108;2022-12-18T10:56:27;-2.54;70.68
18361;SHT31;9308;48.550;9.108;2022-12-18T11:01:27;-2.38;70.67
18361;SHT31;9308;48.550;9.108;2022-12-18T11:06:20;-2.14;69.70
18361;SHT31;9308;48.550;9.108;2022-12-18T11:09:00;-2.04;69.46
18361;SHT31;9308;48.550;9.108;2022-12-18T11:11:26;-2.18;70.31
18361;SHT31;9308;48.550;9.108;2022-12-18T11:16:27;-2.11;69.47
18361;SHT31;9308;48.550;9.108;2022-12-18T11:18:53;-2.02;70.12
18361;SHT31;9308;48.550;9.108;2022-12-18T11:21:19;-1.88;69.92
18361;SHT31;9308;48.550;9.108;2022-12-18T11:23:52;-1.70;69.70
18361;SHT31;9308;48.550;9.108;2022-12-18T11:26:18;-1.87;70.13
18361;SHT31;9308;48.550;9.108;2022-12-18T11:28:51;-1.84;69.95
18361;SHT31;9308;48.550;9.108;2022-12-18T11:34:02;-1.87;71.09
18361;SHT31;9308;48.550;9.108;2022-12-18T11:36:33;-1.40;69.61
18361;SHT31;9308;48.550;9.108;2022-12-18T11:39:07;-1.40;68.57
18361;SHT31;9308;48.550;9.108;2022-12-18T11:41:41;-1.34;68.46
18361;SHT31;9308;48.550;9.108;2022-12-18T11:44:42;-1.39;69.64
18361;SHT31;9308;48.550;9.108;2022-12-18T11:47:34;-1.50;69.50
18361;SHT31;9308;48.550;9.108;2022-12-18T11:50:20;-1.11;69.24
18361;SHT31;9308;48.550;9.108;2022-12-18T11:52:47;-1.05;68.62
18361;SHT31;9308;48.550;9.108;2022-12-18T12:03:49;-0.42;67.99
18361;SHT31;9308;48.550;9.108;2022-12-18T12:06:31;-0.28;67.62
18361;SHT31;9308;48.550;9.108;2022-12-18T12:09:12;-0.35;67.88
18361;SHT31;9308;48.550;9.108;2022-12-18T12:17:11;0.14;67.96
18361;SHT31;9308;48.550;9.108;2022-12-18T12:20:04;0.06;67.51
18361;SHT31;9308;48.550;9.108;2022-12-18T12:22:53;0.34;65.89
18361;SHT31;9308;48.550;9.108;2022-12-18T12:26:01;0.51;65.94
18361;SHT31;9308;48.550;9.108;2022-12-18T12:36:57;0.64;66.23
18361;SHT31;9308;48.550;9.108;2022-12-18T12:39:29;0.48;65.10
18361;SHT31;9308;48.550;9.108;2022-12-18T12:41:56;0.76;65.34
18361;SHT31;9308;48.550;9.108;2022-12-18T12:44:44;0.86;64.88
18361;SHT31;9308;48.550;9.108;2022-12-18T12:47:26;0.90;64.45
18361;SHT31;9308;48.550;9.108;2022-12-18T12:49:53;0.89;64.26
18361;SHT31;9308;48.550;9.108;2022-12-18T12:52:33;1.24;63.25
18361;SHT31;9308;48.550;9.108;2022-12-18T12:55:00;1.00;64.60
18361;SHT31;9308;48.550;9.108;2022-12-18T13:00:39;0.82;65.15
18361;SHT31;9308;48.550;9.108;2022-12-18T13:03:15;0.69;66.41
18361;SHT31;9308;48.550;9.108;2022-12-18T13:05:50;1.06;65.31
18361;SHT31;9308;48.550;9.108;2022-12-18T13:08:28;0.90;64.71
18361;SHT31;9308;48.550;9.108;2022-12-18T13:10:55;1.17;64.18
18361;SHT31;9308;48.550;9.108;2022-12-18T13:13:53;1.06;64.79
18361;SHT31;9308;48.550;9.108;2022-12-18T13:16:23;0.78;64.53
18361;SHT31;9308;48.550;9.108;2022-12-18T13:18:51;0.40;65.93
18361;SHT31;9308;48.550;9.108;2022-12-18T13:21:32;0.54;66.68
18361;SHT31;9308;48.550;9.108;2022-12-18T13:24:15;0.58;66.39
18361;SHT31;9308;48.550;9.108;2022-12-18T13:26:46;0.61;65.25
18361;SHT31;9308;48.550;9.108;2022-12-18T13:29:42;0.66;65.83
18361;SHT31;9308;48.550;9.108;2022-12-18T13:32:20;0.79;66.46
18361;SHT31;9308;48.550;9.108;2022-12-18T13:34:46;0.41;66.71
18361;SHT31;9308;48.550;9.108;2022-12-18T13:39:56;0.83;65.52
18361;SHT31;9308;48.550;9.108;2022-12-18T13:42:31;0.57;65.58
18361;SHT31;9308;48.550;9.108;2022-12-18T13:45:39;0.64;66.12
18361;SHT31;9308;48.550;9.108;2022-12-18T13:48:15;0.38;65.91
18361;SHT31;9308;48.550;9.108;2022-12-18T13:50:41;0.62;66.17
18361;SHT31;9308;48.550;9.108;2022-12-18T13:53:18;0.52;65.92
18361;SHT31;9308;48.550;9.108;2022-12-18T13:55:45;0.55;66.77
18361;SHT31;9308;48.550;9.108;2022-12-18T13:58:11;0.45;65.99
18361;SHT31;9308;48.550;9.108;2022-12-18T14:00:41;0.62;66.34
18361;SHT31;9308;48.550;9.108;2022-12-18T14:03:24;0.38;66.74
18361;SHT31;9308;48.550;9.108;2022-12-18T14:05:58;0.45;66.80
18361;SHT31;9308;48.550;9.108;2022-12-18T14:08:29;0.31;66.72
18361;SHT31;9308;48.550;9.108;2022-12-18T14:10:57;0.29;66.75
18361;SHT31;9308;48.550;9.108;2022-12-18T14:13:31;0.21;66.67
18361;SHT31;9308;48.550;9.108;2022-12-18T14:16:00;-0.03;67.75
18361;SHT31;9308;48.550;9.108;2022-12-18T14:18:46;0.20;67.28
18361;SHT31;9308;48.550;9.108;2022-12-18T14:21:31;-0.04;67.31
18361;SHT31;9308;48.550;9.108;2022-12-18T14:24:13;-0.13;67.76
18361;SHT31;9308;48.550;9.108;2022-12-18T14:26:40;-0.08;67.57
18361;SHT31;9308;48.550;9.108;2022-12-18T14:29:26;-0.22;68.27
18361;SHT31;9308;48.550;9.108;2022-12-18T14:32:16;-0.36;68.55
18361;SHT31;9308;48.550;9.108;2022-12-18T14:34:47;-0.60;69.28
18361;SHT31;9308;48.550;9.108;2022-12-18T14:37:14;-0.53;69.63
18361;SHT31;9308;48.550;9.108;2022-12-18T14:39:40;-0.45;68.48
18361;SHT31;9308;48.550;9.108;2022-12-18T14:42:17;-0.62;68.94
18361;SHT31;9308;48.550;9.108;2022-12-18T14:44:42;-0.73;69.24
18361;SHT31;9308;48.550;9.108;2022-12-18T14:47:13;-0.62;69.45
18361;SHT31;9308;48.550;9.108;2022-12-18T14:49:41;-0.64;69.15
18361;SHT31;9308;48.550;9.108;2022-12-18T14:52:23;-1.02;70.50
18361;SHT31;9308;48.550;9.108;2022-12-18T14:54:51;-0.87;70.14
18361;SHT31;9308;48.550;9.108;2022-12-18T14:57:25;-1.05;69.87
18361;SHT31;9308;48.550;9.108;2022-12-18T14:59:53;-1.17;69.84
18361;SHT31;9308;48.550;9.108;2022-12-18T15:02:24;-1.17;70.73
18361;SHT31;9308;48.550;9.108;2022-12-18T15:07:54;-1.43;70.77
18361;SHT31;9308;48.550;9.108;2022-12-18T15:10:31;-1.19;70.62
18361;SHT31;9308;48.550;9.108;2022-12-18T15:20:53;-1.59;70.92
18361;SHT31;9308;48.550;9.108;2022-12-18T15:23:35;-1.55;71.16
18361;SHT31;9308;48.550;9.108;2022-12-18T15:26:03;-1.74;71.33
18361;SHT31;9308;48.550;9.108;2022-12-18T15:28:48;-1.74;71.94
18361;SHT31;9308;48.550;9.108;2022-12-18T15:33:43;-1.76;71.89
18361;SHT31;9308;48.550;9.108;2022-12-18T15:36:11;-1.86;71.05
18361;SHT31;9308;48.550;9.108;2022-12-18T15:38:37;-1.90;71.75
18361;SHT31;9308;48.550;9.108;2022-12-18T15:41:03;-1.90;71.91
18361;SHT31;9308;48.550;9.108;2022-12-18T15:43:28;-1.83;71.33
18361;SHT31;9308;48.550;9.108;2022-12-18T15:46:09;-2.08;72.21
18361;SHT31;9308;48.550;9.108;2022-12-18T15:48:41;-2.21;72.42
18361;SHT31;9308;48.550;9.108;2022-12-18T15:51:13;-2.14;72.42
18361;SHT31;9308;48.550;9.108;2022-12-18T15:53:40;-2.36;72.92
18361;SHT31;9308;48.550;9.108;2022-12-18T15:56:10;-2.06;72.38
18361;SHT31;9308;48.550;9.108;2022-12-18T15:58:54;-2.31;72.30
18361;SHT31;9308;48.550;9.108;2022-12-18T16:01:20;-2.42;72.50
18361;SHT31;9308;48.550;9.108;2022-12-18T16:03:47;-2.39;72.90
18361;SHT31;9308;48.550;9.108;2022-12-18T16:06:12;-2.59;73.77
18361;SHT31;9308;48.550;9.108;2022-12-18T16:08:38;-2.45;72.77
18361;SHT31;9308;48.550;9.108;2022-12-18T16:11:03;-2.45;72.62
18361;SHT31;9308;48.550;9.108;2022-12-18T16:13:29;-2.52;72.92
18361;SHT31;9308;48.550;9.108;2022-12-18T16:15:54;-2.48;72.85
18361;SHT31;9308;48.550;9.108;2022-12-18T16:18:20;-2.39;72.73
18361;SHT31;9308;48.550;9.108;2022-12-18T16:20:45;-2.48;72.90
18361;SHT31;9308;48.550;9.108;2022-12-18T16:23:11;-2.38;73.04
18361;SHT31;9308;48.550;9.108;2022-12-18T16:25:36;-2.43;73.39
18361;SHT31;9308;48.550;9.108;2022-12-18T16:28:02;-2.48;73.44
18361;SHT31;9308;48.550;9.108;2022-12-18T16:30:29;-2.35;73.18
18361;SHT31;9308;48.550;9.108;2022-12-18T16:32:56;-2.50;73.20
18361;SHT31;9308;48.550;9.108;2022-12-18T16:35:22;-2.49;73.44
18361;SHT31;9308;48.550;9.108;2022-12-18T16:37:48;-2.43;73.01
18361;SHT31;9308;48.550;9.108;2022-12-18T16:40:15;-2.41;72.95
18361;SHT31;9308;48.550;9.108;2022-12-18T16:42:42;-2.48;73.22
18361;SHT31;9308;48.550;9.108;2022-12-18T16:45:10;-2.41;73.15
18361;SHT31;9308;48.550;9.108;2022-12-18T16:47:37;-2.45;73.22
18361;SHT31;9308;48.550;9.108;2022-12-18T16:50:03;-2.43;73.64
18361;SHT31;9308;48.550;9.108;2022-12-18T16:52:29;-2.42;73.93
18361;SHT31;9308;48.550;9.108;2022-12-18T16:54:55;-2.48;74.04
18361;SHT31;9308;48.550;9.108;2022-12-18T16:57:21;-2.45;73.67
18361;SHT31;9308;48.550;9.108;2022-12-18T16:59:46;-2.22;73.46
18361;SHT31;9308;48.550;9.108;2022-12-18T17:02:13;-2.22;73.88
18361;SHT31;9308;48.550;9.108;2022-12-18T17:04:40;-2.15;73.56
18361;SHT31;9308;48.550;9.108;2022-12-18T17:07:06;-2.04;73.41
18361;SHT31;9308;48.550;9.108;2022-12-18T17:09:32;-2.08;73.77
18361;SHT31;9308;48.550;9.108;2022-12-18T17:11:57;-1.95;73.77
18361;SHT31;9308;48.550;9.108;2022-12-18T17:14:24;-2.01;73.65
18361;SHT31;9308;48.550;9.108;2022-12-18T17:16:51;-2.06;73.99
18361;SHT31;9308;48.550;9.108;2022-12-18T17:19:16;-2.08;73.94
18361;SHT31;9308;48.550;9.108;2022-12-18T17:21:43;-1.98;73.90
18361;SHT31;9308;48.550;9.108;2022-12-18T17:24:09;-2.11;74.53
18361;SHT31;9308;48.550;9.108;2022-12-18T17:26:35;-2.06;74.47
18361;SHT31;9308;48.550;9.108;2022-12-18T17:29:01;-1.91;73.95
18361;SHT31;9308;48.550;9.108;2022-12-18T17:31:28;-1.94;74.15